foto1
foto1
foto1
foto1
foto1


Bienvenue sur le site de l'Aéroclub Dassault Breguet Biarritz

Actualités:

METAR LFBZ

LFBZ 250800Z AUTO VRB03KT CAVOK 21/15 Q1018 NOSIG

TAF LFBZ

TAF LFBZ 250500Z 2506/2606 10005KT CAVOK BECMG 2510/2512 35010KT TEMPO 2602/2606 VRB02KT

Accès Membres

Réserver un avion

Pour réserver un avion cliquer sur le logo Openflyers

logo openflyers

Flux RSS

Aerobuzz

Actualité et information aéronautique